sensor_id;sensor_type;location;lat;lon;timestamp;pressure;altitude;pressure_sealevel;temperature;humidity
5679;BME280;2862;52.560;13.566;2024-02-26T00:03:13;99591.09;;;4.87;100.00
5679;BME280;2862;52.560;13.566;2024-02-26T00:13:17;99579.59;;;4.52;100.00
5679;BME280;2862;52.560;13.566;2024-02-26T00:23:24;99574.28;;;4.41;100.00
5679;BME280;2862;52.560;13.566;2024-02-26T00:33:28;99570.72;;;4.42;100.00
5679;BME280;2862;52.560;13.566;2024-02-26T00:43:31;99567.47;;;4.61;100.00
5679;BME280;2862;52.560;13.566;2024-02-26T00:53:35;99567.47;;;4.50;100.00
5679;BME280;2862;52.560;13.566;2024-02-26T01:03:38;99561.19;;;4.51;100.00
5679;BME280;2862;52.560;13.566;2024-02-26T01:13:42;99544.09;;;4.33;100.00
5679;BME280;2862;52.560;13.566;2024-02-26T01:23:45;99546.06;;;4.07;100.00
5679;BME280;2862;52.560;13.566;2024-02-26T01:33:50;99543.94;;;4.23;100.00
5679;BME280;2862;52.560;13.566;2024-02-26T01:43:53;99551.75;;;4.13;100.00
5679;BME280;2862;52.560;13.566;2024-02-26T01:53:57;99539.84;;;3.84;100.00
5679;BME280;2862;52.560;13.566;2024-02-26T02:04:00;99540.22;;;3.79;100.00
5679;BME280;2862;52.560;13.566;2024-02-26T02:14:06;99547.56;;;3.63;100.00
5679;BME280;2862;52.560;13.566;2024-02-26T02:24:10;99552.97;;;3.61;100.00
5679;BME280;2862;52.560;13.566;2024-02-26T02:34:13;99543.94;;;3.88;100.00
5679;BME280;2862;52.560;13.566;2024-02-26T02:44:18;99549.97;;;3.42;100.00
5679;BME280;2862;52.560;13.566;2024-02-26T02:54:21;99548.56;;;3.49;100.00
5679;BME280;2862;52.560;13.566;2024-02-26T03:04:26;99555.97;;;3.57;100.00
5679;BME280;2862;52.560;13.566;2024-02-26T03:14:29;99549.72;;;3.58;100.00
5679;BME280;2862;52.560;13.566;2024-02-26T03:24:32;99559.44;;;3.33;100.00
5679;BME280;2862;52.560;13.566;2024-02-26T03:34:36;99565.47;;;3.23;100.00
5679;BME280;2862;52.560;13.566;2024-02-26T03:44:41;99560.13;;;2.86;100.00
5679;BME280;2862;52.560;13.566;2024-02-26T03:54:44;99573.44;;;3.10;100.00
5679;BME280;2862;52.560;13.566;2024-02-26T04:04:49;99567.59;;;3.17;100.00
5679;BME280;2862;52.560;13.566;2024-02-26T04:14:52;99567.53;;;2.93;100.00
5679;BME280;2862;52.560;13.566;2024-02-26T04:24:57;99580.22;;;2.76;100.00
5679;BME280;2862;52.560;13.566;2024-02-26T04:34:59;99592.88;;;2.83;100.00
5679;BME280;2862;52.560;13.566;2024-02-26T04:45:04;99601.84;;;2.81;100.00
5679;BME280;2862;52.560;13.566;2024-02-26T04:55:08;99618.41;;;3.08;100.00
5679;BME280;2862;52.560;13.566;2024-02-26T05:05:13;99614.63;;;3.12;100.00
5679;BME280;2862;52.560;13.566;2024-02-26T05:15:15;99620.13;;;2.71;100.00
5679;BME280;2862;52.560;13.566;2024-02-26T05:25:21;99636.47;;;2.63;100.00
5679;BME280;2862;52.560;13.566;2024-02-26T05:35:24;99642.19;;;2.83;100.00
5679;BME280;2862;52.560;13.566;2024-02-26T05:45:29;99649.78;;;2.75;100.00
5679;BME280;2862;52.560;13.566;2024-02-26T05:55:32;99654.97;;;3.02;100.00
5679;BME280;2862;52.560;13.566;2024-02-26T06:05:36;99661.50;;;3.09;100.00
5679;BME280;2862;52.560;13.566;2024-02-26T06:15:39;99675.56;;;2.97;100.00
5679;BME280;2862;52.560;13.566;2024-02-26T06:25:43;99683.03;;;3.41;100.00
5679;BME280;2862;52.560;13.566;2024-02-26T06:35:47;99683.81;;;5.99;100.00
5679;BME280;2862;52.560;13.566;2024-02-26T06:45:51;99681.91;;;7.07;91.90
5679;BME280;2862;52.560;13.566;2024-02-26T06:55:54;99700.25;;;6.89;91.09
5679;BME280;2862;52.560;13.566;2024-02-26T07:05:58;99712.13;;;7.06;90.78
5679;BME280;2862;52.560;13.566;2024-02-26T07:16:01;99717.16;;;6.67;93.10
5679;BME280;2862;52.560;13.566;2024-02-26T07:26:05;99733.16;;;6.98;91.77
5679;BME280;2862;52.560;13.566;2024-02-26T07:36:10;99735.31;;;7.25;90.41
5679;BME280;2862;52.560;13.566;2024-02-26T07:46:14;99732.66;;;7.04;94.32
5679;BME280;2862;52.560;13.566;2024-02-26T07:56:17;99732.19;;;7.19;95.63
5679;BME280;2862;52.560;13.566;2024-02-26T08:06:22;99732.69;;;6.92;94.74
5679;BME280;2862;52.560;13.566;2024-02-26T08:16:25;99724.09;;;7.00;96.64
5679;BME280;2862;52.560;13.566;2024-02-26T08:26:30;99745.28;;;6.26;100.00
5679;BME280;2862;52.560;13.566;2024-02-26T08:36:33;99736.19;;;6.40;100.00
5679;BME280;2862;52.560;13.566;2024-02-26T08:46:37;99735.41;;;6.60;100.00
5679;BME280;2862;52.560;13.566;2024-02-26T08:56:40;99732.19;;;7.40;98.87
5679;BME280;2862;52.560;13.566;2024-02-26T09:06:45;99722.78;;;7.67;97.24
5679;BME280;2862;52.560;13.566;2024-02-26T09:16:48;99725.50;;;8.36;93.20
5679;BME280;2862;52.560;13.566;2024-02-26T09:26:52;99731.84;;;8.45;91.58
5679;BME280;2862;52.560;13.566;2024-02-26T09:36:55;99729.94;;;8.16;93.61
5679;BME280;2862;52.560;13.566;2024-02-26T09:47:02;99731.66;;;8.27;93.15
5679;BME280;2862;52.560;13.566;2024-02-26T09:57:09;99734.78;;;8.71;90.48
5679;BME280;2862;52.560;13.566;2024-02-26T10:07:18;99741.38;;;9.62;84.95
5679;BME280;2862;52.560;13.566;2024-02-26T10:17:22;99739.59;;;10.18;81.32
5679;BME280;2862;52.560;13.566;2024-02-26T10:27:27;99747.00;;;10.33;79.77
5679;BME280;2862;52.560;13.566;2024-02-26T10:37:30;99738.59;;;10.46;79.85
5679;BME280;2862;52.560;13.566;2024-02-26T10:47:35;99722.06;;;10.78;78.37
5679;BME280;2862;52.560;13.566;2024-02-26T10:57:40;99737.31;;;10.50;76.04
5679;BME280;2862;52.560;13.566;2024-02-26T11:07:48;99747.84;;;10.34;74.87
5679;BME280;2862;52.560;13.566;2024-02-26T11:17:53;99735.50;;;11.30;77.58
5679;BME280;2862;52.560;13.566;2024-02-26T11:28:03;99730.16;;;11.30;77.93
5679;BME280;2862;52.560;13.566;2024-02-26T11:38:07;99735.25;;;11.24;78.56
5679;BME280;2862;52.560;13.566;2024-02-26T11:48:12;99730.25;;;11.21;79.03
5679;BME280;2862;52.560;13.566;2024-02-26T11:58:16;99734.34;;;11.33;79.75
5679;BME280;2862;52.560;13.566;2024-02-26T12:08:21;99732.88;;;11.38;79.40
5679;BME280;2862;52.560;13.566;2024-02-26T12:18:25;99725.69;;;11.39;75.30
5679;BME280;2862;52.560;13.566;2024-02-26T12:28:31;99733.41;;;11.42;76.05
5679;BME280;2862;52.560;13.566;2024-02-26T12:38:34;99737.44;;;11.46;73.38
5679;BME280;2862;52.560;13.566;2024-02-26T12:48:41;99739.63;;;11.51;72.07
5679;BME280;2862;52.560;13.566;2024-02-26T12:58:45;99751.00;;;11.79;69.19
5679;BME280;2862;52.560;13.566;2024-02-26T13:08:56;99744.47;;;11.73;67.31
5679;BME280;2862;52.560;13.566;2024-02-26T13:19:08;99745.75;;;11.69;64.59
5679;BME280;2862;52.560;13.566;2024-02-26T13:29:18;99748.63;;;11.41;63.99
5679;BME280;2862;52.560;13.566;2024-02-26T13:39:21;99753.59;;;11.36;64.80
5679;BME280;2862;52.560;13.566;2024-02-26T13:49:26;99759.69;;;11.21;65.76
5679;BME280;2862;52.560;13.566;2024-02-26T13:59:29;99758.25;;;10.90;67.42
5679;BME280;2862;52.560;13.566;2024-02-26T14:09:35;99773.28;;;11.09;68.31
5679;BME280;2862;52.560;13.566;2024-02-26T14:19:42;99804.56;;;10.91;68.08
5679;BME280;2862;52.560;13.566;2024-02-26T14:29:47;99809.06;;;10.90;68.74
5679;BME280;2862;52.560;13.566;2024-02-26T14:39:50;99817.09;;;10.90;68.87
5679;BME280;2862;52.560;13.566;2024-02-26T14:49:55;99825.03;;;10.82;70.08
5679;BME280;2862;52.560;13.566;2024-02-26T14:59:58;99846.22;;;10.66;70.45
5679;BME280;2862;52.560;13.566;2024-02-26T15:10:02;99855.56;;;10.34;72.43
5679;BME280;2862;52.560;13.566;2024-02-26T15:20:07;99858.63;;;10.40;74.00
5679;BME280;2862;52.560;13.566;2024-02-26T15:30:12;99861.22;;;10.12;75.45
5679;BME280;2862;52.560;13.566;2024-02-26T15:40:15;99880.41;;;9.98;77.89
5679;BME280;2862;52.560;13.566;2024-02-26T15:50:20;99897.53;;;9.95;79.20
5679;BME280;2862;52.560;13.566;2024-02-26T16:00:23;99905.16;;;9.80;81.46
5679;BME280;2862;52.560;13.566;2024-02-26T16:10:27;99914.88;;;9.72;83.87
5679;BME280;2862;52.560;13.566;2024-02-26T16:20:31;99921.34;;;9.60;85.89
5679;BME280;2862;52.560;13.566;2024-02-26T16:30:36;99931.88;;;9.51;87.64
5679;BME280;2862;52.560;13.566;2024-02-26T16:40:40;99937.50;;;9.29;89.97
5679;BME280;2862;52.560;13.566;2024-02-26T16:50:44;99936.34;;;9.12;91.59
5679;BME280;2862;52.560;13.566;2024-02-26T17:00:47;99943.47;;;9.12;89.56
5679;BME280;2862;52.560;13.566;2024-02-26T17:10:51;99955.69;;;9.04;88.33
5679;BME280;2862;52.560;13.566;2024-02-26T17:20:54;99962.81;;;8.94;89.07
5679;BME280;2862;52.560;13.566;2024-02-26T17:31:00;99978.19;;;8.81;91.10
5679;BME280;2862;52.560;13.566;2024-02-26T17:41:03;99985.31;;;8.71;93.97
5679;BME280;2862;52.560;13.566;2024-02-26T17:51:09;99997.09;;;8.68;95.08
5679;BME280;2862;52.560;13.566;2024-02-26T18:01:13;100022.28;;;8.55;96.82
5679;BME280;2862;52.560;13.566;2024-02-26T18:11:17;100045.59;;;8.62;96.70
5679;BME280;2862;52.560;13.566;2024-02-26T18:21:20;100057.41;;;8.48;97.61
5679;BME280;2862;52.560;13.566;2024-02-26T18:31:25;100067.91;;;8.40;97.69
5679;BME280;2862;52.560;13.566;2024-02-26T18:41:27;100077.50;;;8.32;97.98
5679;BME280;2862;52.560;13.566;2024-02-26T18:51:32;100087.13;;;8.12;98.90
5679;BME280;2862;52.560;13.566;2024-02-26T19:01:34;100095.75;;;8.04;98.55
5679;BME280;2862;52.560;13.566;2024-02-26T19:11:44;100091.31;;;7.93;98.52
5679;BME280;2862;52.560;13.566;2024-02-26T19:21:47;100095.22;;;7.78;99.05
5679;BME280;2862;52.560;13.566;2024-02-26T19:31:51;100099.84;;;7.76;98.89
5679;BME280;2862;52.560;13.566;2024-02-26T19:41:54;100097.91;;;7.67;99.08
5679;BME280;2862;52.560;13.566;2024-02-26T19:51:59;100124.91;;;7.51;99.92
5679;BME280;2862;52.560;13.566;2024-02-26T20:02:08;100112.22;;;7.43;99.83
5679;BME280;2862;52.560;13.566;2024-02-26T20:12:27;100127.84;;;7.37;99.29
5679;BME280;2862;52.560;13.566;2024-02-26T20:22:30;100135.47;;;7.30;99.43
5679;BME280;2862;52.560;13.566;2024-02-26T20:32:35;100142.09;;;7.25;99.10
5679;BME280;2862;52.560;13.566;2024-02-26T20:42:38;100149.47;;;7.10;99.67
5679;BME280;2862;52.560;13.566;2024-02-26T20:52:43;100161.75;;;6.77;100.00
5679;BME280;2862;52.560;13.566;2024-02-26T21:02:46;100173.72;;;6.83;100.00
5679;BME280;2862;52.560;13.566;2024-02-26T21:12:50;100186.00;;;6.73;100.00
5679;BME280;2862;52.560;13.566;2024-02-26T21:22:53;100196.50;;;6.74;100.00
5679;BME280;2862;52.560;13.566;2024-02-26T21:32:58;100209.06;;;6.72;100.00
5679;BME280;2862;52.560;13.566;2024-02-26T21:43:01;100219.91;;;6.69;100.00
5679;BME280;2862;52.560;13.566;2024-02-26T21:53:07;100228.09;;;6.55;100.00
5679;BME280;2862;52.560;13.566;2024-02-26T22:03:10;100246.16;;;6.74;100.00
5679;BME280;2862;52.560;13.566;2024-02-26T22:13:15;100258.06;;;6.68;100.00
5679;BME280;2862;52.560;13.566;2024-02-26T22:23:22;100259.19;;;6.53;100.00
5679;BME280;2862;52.560;13.566;2024-02-26T22:33:27;100262.44;;;6.45;100.00
5679;BME280;2862;52.560;13.566;2024-02-26T22:43:30;100266.38;;;6.39;100.00
5679;BME280;2862;52.560;13.566;2024-02-26T22:53:34;100261.06;;;6.16;100.00
5679;BME280;2862;52.560;13.566;2024-02-26T23:03:37;100263.47;;;6.19;100.00
5679;BME280;2862;52.560;13.566;2024-02-26T23:13:41;100268.25;;;6.26;100.00
5679;BME280;2862;52.560;13.566;2024-02-26T23:23:49;100275.38;;;6.26;100.00
5679;BME280;2862;52.560;13.566;2024-02-26T23:33:54;100273.28;;;6.05;100.00
5679;BME280;2862;52.560;13.566;2024-02-26T23:43:59;100297.19;;;5.67;100.00
5679;BME280;2862;52.560;13.566;2024-02-26T23:54:06;100298.56;;;5.47;100.00
